Time;durP1;ratioP1;P1;durP2;ratioP2;P2;SDS_P1;SDS_P2;PMS_P1;PMS_P2;Temp;Humidity;BMP_temperature;BMP_pressure;BME280_temperature;BME280_humidity;BME280_pressure;Samples;Min_cycle;Max_cycle;Signal;HPM_P1;HPM_P2
2022/06/13 00:02:15;;;;;;;14.53;8.13;;;;;;;16.77;100.00;94654.22;4957829;28;20206;-81
2022/06/13 00:04:50;;;;;;;15.77;8.33;;;;;;;16.73;100.00;94658.41;4951376;28;20213;-80
2022/06/13 00:07:20;;;;;;;12.77;7.90;;;;;;;16.72;100.00;94664.69;4954205;28;20203;-81
2022/06/13 00:09:53;;;;;;;12.80;8.47;;;;;;;16.72;100.00;94669.94;4952342;28;20265;-82
2022/06/13 00:12:28;;;;;;;11.77;8.17;;;;;;;16.74;100.00;94664.44;4948839;28;20232;-81
2022/06/13 00:15:02;;;;;;;11.73;8.33;;;;;;;16.69;100.00;94667.84;4953808;28;20219;-79
2022/06/13 00:17:35;;;;;;;13.53;8.80;;;;;;;16.59;100.00;94646.81;4949604;28;20296;-79
2022/06/13 00:20:10;;;;;;;12.17;8.60;;;;;;;16.67;100.00;94661.28;4952177;28;20206;-81
2022/06/13 00:22:39;;;;;;;14.57;9.80;;;;;;;16.62;100.00;94651.53;4954870;28;20216;-81
2022/06/13 00:25:12;;;;;;;16.63;9.07;;;;;;;16.66;100.00;94670.97;4950685;28;20305;-80
2022/06/13 00:27:51;;;;;;;11.07;8.97;;;;;;;16.68;100.00;94668.09;4956810;28;20313;-82
2022/06/13 00:30:21;;;;;;;15.50;8.63;;;;;;;16.64;100.00;94674.91;4957175;28;20302;-82
2022/06/13 00:32:52;;;;;;;11.13;8.87;;;;;;;16.63;100.00;94668.84;4956613;28;20231;-82
2022/06/13 00:35:21;;;;;;;13.07;8.40;;;;;;;16.57;100.00;94667.25;4956089;28;20207;-81
2022/06/13 00:37:50;;;;;;;11.17;8.47;;;;;;;16.50;100.00;94671.91;4954573;28;20205;-81
2022/06/13 00:40:20;;;;;;;10.87;9.00;;;;;;;16.57;100.00;94684.81;4955141;28;20548;-82
2022/06/13 00:42:51;;;;;;;13.33;8.47;;;;;;;16.59;100.00;94669.63;4961545;28;20259;-82
2022/06/13 00:45:25;;;;;;;16.57;8.70;;;;;;;16.55;100.00;94671.97;4953666;28;20193;-81
2022/06/13 00:48:01;;;;;;;12.97;8.97;;;;;;;16.54;100.00;94667.75;4956639;28;20193;-84
2022/06/13 00:50:38;;;;;;;12.60;8.90;;;;;;;16.57;100.00;94671.69;4955634;28;20318;-83
2022/06/13 00:53:11;;;;;;;11.80;7.80;;;;;;;16.54;100.00;94680.06;4956083;28;20221;-82
2022/06/13 00:55:48;;;;;;;13.60;8.83;;;;;;;16.40;100.00;94677.09;4958968;28;20205;-83
2022/06/13 00:58:22;;;;;;;12.90;8.60;;;;;;;16.24;100.00;94672.78;4958714;28;20243;-84
2022/06/13 01:00:54;;;;;;;10.57;8.63;;;;;;;16.26;100.00;94665.44;4961390;28;20536;-84
2022/06/13 01:03:25;;;;;;;10.70;9.00;;;;;;;16.24;100.00;94668.34;4954155;28;20212;-83
2022/06/13 01:06:02;;;;;;;11.70;9.10;;;;;;;16.28;100.00;94664.16;4945298;28;20220;-83
2022/06/13 01:08:38;;;;;;;11.87;8.30;;;;;;;16.20;100.00;94664.63;4954149;28;20197;-82
2022/06/13 01:11:17;;;;;;;13.00;9.00;;;;;;;16.13;100.00;94661.41;4958194;28;20278;-81
2022/06/13 01:14:18;;;;;;;14.33;8.53;;;;;;;16.13;100.00;94650.16;4956127;28;20216;-80
2022/06/13 01:17:07;;;;;;;12.00;8.77;;;;;;;16.13;100.00;94658.81;4961095;28;20220;-81
2022/06/13 01:20:06;;;;;;;13.77;8.90;;;;;;;16.16;100.00;94655.69;4953286;28;20213;-80
2022/06/13 01:23:19;;;;;;;14.70;8.80;;;;;;;16.16;100.00;94660.16;4957211;28;20233;-82
2022/06/13 01:26:32;;;;;;;11.90;8.80;;;;;;;16.21;100.00;94645.25;4901328;29;20219;-82
2022/06/13 01:29:33;;;;;;;14.80;8.70;;;;;;;16.23;100.00;94658.09;4955880;28;20264;-80
2022/06/13 01:32:19;;;;;;;14.57;8.10;;;;;;;16.20;100.00;94656.75;4954620;28;20226;-81
2022/06/13 01:35:01;;;;;;;11.83;8.73;;;;;;;16.18;100.00;94660.69;4955807;28;20209;-80
2022/06/13 01:37:45;;;;;;;14.10;8.57;;;;;;;16.04;100.00;94641.97;4953908;28;20221;-80
2022/06/13 01:40:29;;;;;;;14.83;8.43;;;;;;;16.10;100.00;94658.53;4958829;28;20209;-81
2022/06/13 01:43:14;;;;;;;11.10;9.07;;;;;;;16.13;100.00;94660.66;4957823;28;20324;-80
2022/06/13 01:45:55;;;;;;;13.47;8.77;;;;;;;16.17;100.00;94667.75;4953359;28;20228;-80
2022/06/13 01:48:55;;;;;;;12.90;8.73;;;;;;;16.20;100.00;94667.25;4954687;28;20205;-80
2022/06/13 01:51:34;;;;;;;13.93;9.73;;;;;;;16.22;100.00;94654.66;4953283;28;20261;-81
2022/06/13 01:54:22;;;;;;;21.80;9.40;;;;;;;16.29;100.00;94654.47;4958119;28;20648;-82
2022/06/13 01:57:03;;;;;;;15.20;9.07;;;;;;;16.27;100.00;94670.47;4955710;28;20299;-81
2022/06/13 01:59:45;;;;;;;15.43;9.43;;;;;;;16.21;100.00;94662.81;4955059;28;20201;-81
2022/06/13 02:02:24;;;;;;;15.23;9.50;;;;;;;16.29;100.00;94672.81;4951895;28;20913;-81
2022/06/13 02:05:02;;;;;;;14.37;10.10;;;;;;;16.30;100.00;94664.72;4956426;28;20228;-82
2022/06/13 02:07:39;;;;;;;16.27;11.70;;;;;;;16.29;100.00;94673.63;4954818;28;20205;-82
2022/06/13 02:10:15;;;;;;;16.80;12.07;;;;;;;16.21;100.00;94668.06;4955202;28;20213;-83
2022/06/13 02:12:50;;;;;;;15.03;11.83;;;;;;;16.27;100.00;94678.31;4956371;28;20220;-82
2022/06/13 02:15:28;;;;;;;15.57;11.93;;;;;;;16.16;100.00;94681.91;4957710;28;20204;-83
2022/06/13 02:18:07;;;;;;;14.10;10.57;;;;;;;15.98;100.00;94671.81;4958743;28;20205;-82
2022/06/13 02:20:46;;;;;;;12.67;9.93;;;;;;;15.82;100.00;94672.72;4953902;28;20264;-83
2022/06/13 02:23:24;;;;;;;20.37;11.03;;;;;;;15.87;100.00;94678.03;4958495;28;20201;-82
2022/06/13 02:26:10;;;;;;;18.23;10.57;;;;;;;15.91;100.00;94679.09;4960926;28;20260;-82
2022/06/13 02:28:49;;;;;;;14.80;10.17;;;;;;;15.95;100.00;94679.38;4958524;28;20212;-83
2022/06/13 02:31:25;;;;;;;14.73;10.47;;;;;;;15.95;100.00;94682.81;4956949;28;20244;-82
2022/06/13 02:34:08;;;;;;;16.67;10.57;;;;;;;16.01;100.00;94679.19;4955561;28;20232;-82
2022/06/13 02:36:52;;;;;;;20.00;10.47;;;;;;;16.05;100.00;94685.50;4954806;28;20663;-82
2022/06/13 02:39:31;;;;;;;15.17;10.20;;;;;;;16.06;100.00;94686.28;4957314;28;20671;-82
2022/06/13 02:42:10;;;;;;;19.07;10.50;;;;;;;16.03;100.00;94682.34;4955794;28;20259;-81
2022/06/13 02:44:47;;;;;;;16.13;10.63;;;;;;;16.07;100.00;94680.00;4954029;28;20208;-81
2022/06/13 02:47:25;;;;;;;18.57;10.17;;;;;;;15.98;100.00;94677.06;4959134;28;20838;-82
2022/06/13 02:50:05;;;;;;;13.10;9.50;;;;;;;16.09;100.00;94681.34;4951421;28;20234;-82
2022/06/13 02:52:48;;;;;;;18.63;9.77;;;;;;;16.18;100.00;94679.84;4940791;29;20294;-82
2022/06/13 02:55:24;;;;;;;13.57;9.33;;;;;;;16.19;100.00;94683.25;4934766;29;20297;-81
2022/06/13 02:58:05;;;;;;;13.00;9.07;;;;;;;16.18;100.00;94686.91;4938704;29;20330;-82
2022/06/13 03:00:56;;;;;;;17.90;9.77;;;;;;;16.13;100.00;94690.25;4937973;29;20273;-82
2022/06/13 03:03:42;;;;;;;13.30;9.63;;;;;;;16.11;100.00;94683.69;4938879;29;20644;-82
2022/06/13 03:06:23;;;;;;;17.50;10.17;;;;;;;16.08;100.00;94685.00;4940676;29;20209;-83
2022/06/13 03:09:03;;;;;;;13.50;9.40;;;;;;;16.13;100.00;94695.50;4938141;29;20279;-82
2022/06/13 03:11:47;;;;;;;18.17;9.60;;;;;;;16.11;100.00;94688.94;4935934;29;20210;-81
2022/06/13 03:14:30;;;;;;;14.67;9.13;;;;;;;16.08;100.00;94692.84;4934375;29;20244;-81
2022/06/13 03:17:08;;;;;;;17.67;9.33;;;;;;;16.12;100.00;94695.78;4931963;29;20225;-80
2022/06/13 03:19:45;;;;;;;15.90;9.50;;;;;;;16.11;100.00;94696.81;4937250;29;20202;-82
2022/06/13 03:22:22;;;;;;;13.80;9.47;;;;;;;16.13;100.00;94700.75;4933236;29;20217;-81
2022/06/13 03:25:07;;;;;;;16.03;10.23;;;;;;;16.17;100.00;94707.09;4938278;29;20195;-81
2022/06/13 03:27:47;;;;;;;18.17;8.60;;;;;;;16.17;100.00;94708.91;4936512;29;20247;-81
2022/06/13 03:30:26;;;;;;;17.80;9.87;;;;;;;16.18;100.00;94713.13;4934006;29;20231;-82
2022/06/13 03:35:58;;;;;;;19.10;9.03;;;;;;;16.20;100.00;94722.31;4936008;29;22119;-81
2022/06/13 03:38:36;;;;;;;13.77;9.07;;;;;;;16.24;100.00;94725.25;4934641;29;20265;-82
2022/06/13 03:41:14;;;;;;;12.03;9.10;;;;;;;16.32;100.00;94722.16;4937361;29;20344;-81
2022/06/13 03:43:48;;;;;;;14.40;9.67;;;;;;;16.37;100.00;94722.19;4942425;29;20206;-82
2022/06/13 03:46:27;;;;;;;17.40;10.27;;;;;;;16.37;100.00;94725.59;4943175;29;20691;-87
2022/06/13 03:49:03;;;;;;;16.87;10.13;;;;;;;16.42;100.00;94730.88;4941404;29;20201;-85
2022/06/13 03:51:42;;;;;;;18.67;9.73;;;;;;;16.34;100.00;94712.19;4954590;28;20366;-83
2022/06/13 03:54:18;;;;;;;15.73;11.10;;;;;;;16.44;100.00;94720.16;4957199;28;20228;-83
2022/06/13 03:56:56;;;;;;;21.33;12.33;;;;;;;16.48;100.00;94723.81;4957908;28;20236;-83
2022/06/13 03:59:36;;;;;;;19.13;11.17;;;;;;;16.46;100.00;94721.47;4959723;28;20283;-83
2022/06/13 04:02:12;;;;;;;17.10;11.00;;;;;;;16.46;100.00;94725.91;4954310;28;20277;-83
2022/06/13 04:04:47;;;;;;;17.60;11.60;;;;;;;16.53;100.00;94717.84;4957664;28;20726;-85
2022/06/13 04:07:21;;;;;;;24.40;15.07;;;;;;;16.57;100.00;94722.34;4962661;28;20617;-85
2022/06/13 04:09:53;;;;;;;23.03;15.67;;;;;;;16.52;100.00;94724.91;4959995;28;20219;-86
2022/06/13 04:12:53;;;;;;;19.73;13.07;;;;;;;16.42;100.00;94725.63;4961892;28;20212;-85
2022/06/13 04:15:53;;;;;;;18.77;12.80;;;;;;;16.53;100.00;94723.09;4964557;28;20221;-84
2022/06/13 04:18:39;;;;;;;16.27;11.57;;;;;;;16.56;100.00;94720.78;4959011;28;20244;-84
2022/06/13 04:21:24;;;;;;;13.80;10.60;;;;;;;16.62;100.00;94718.97;4967047;28;20683;-85
2022/06/13 04:24:10;;;;;;;16.07;10.93;;;;;;;16.65;100.00;94724.50;4961752;28;20302;-85
2022/06/13 04:26:50;;;;;;;16.63;12.00;;;;;;;16.62;100.00;94714.53;4961140;28;20204;-84
2022/06/13 04:29:46;;;;;;;14.73;11.47;;;;;;;16.67;100.00;94721.63;4962773;28;20386;-85
2022/06/13 04:32:24;;;;;;;16.90;11.17;;;;;;;16.45;100.00;94698.88;4960297;28;20206;-84
2022/06/13 04:35:01;;;;;;;16.83;11.80;;;;;;;16.48;100.00;94708.09;4960024;28;20610;-84
2022/06/13 04:37:31;;;;;;;15.10;11.83;;;;;;;16.55;100.00;94707.91;4969418;28;20196;-84
2022/06/13 04:40:06;;;;;;;14.37;11.13;;;;;;;16.57;100.00;94714.47;4962187;28;20425;-83
2022/06/13 04:42:40;;;;;;;17.23;12.40;;;;;;;16.62;100.00;94709.28;4964293;28;20319;-83
2022/06/13 04:45:22;;;;;;;17.37;11.87;;;;;;;16.73;100.00;94710.91;4968597;28;21189;-83
2022/06/13 04:47:53;;;;;;;20.37;11.53;;;;;;;16.65;100.00;94710.59;4958254;28;20209;-83
2022/06/13 04:50:29;;;;;;;15.07;11.20;;;;;;;16.69;100.00;94706.41;4961712;28;20727;-82
2022/06/13 04:53:04;;;;;;;15.17;10.63;;;;;;;16.72;100.00;94713.78;4965968;28;20263;-85
2022/06/13 04:55:41;;;;;;;16.47;11.63;;;;;;;16.83;100.00;94710.16;4966486;28;20216;-87
2022/06/13 04:58:19;;;;;;;16.30;10.70;;;;;;;16.89;100.00;94712.56;4964991;28;20222;-82
2022/06/13 05:00:59;;;;;;;14.37;10.53;;;;;;;16.87;100.00;94711.25;4970463;28;20212;-83
2022/06/13 05:03:32;;;;;;;13.13;10.03;;;;;;;16.75;100.00;94708.81;4965667;28;20205;-80
2022/06/13 05:06:10;;;;;;;17.67;10.47;;;;;;;16.70;100.00;94708.78;4972858;28;20204;-80
2022/06/13 05:08:46;;;;;;;14.50;10.23;;;;;;;16.68;100.00;94712.72;4963594;28;20276;-80
2022/06/13 05:11:21;;;;;;;15.03;10.43;;;;;;;16.66;100.00;94704.28;4972649;28;20204;-86
2022/06/13 05:13:56;;;;;;;13.13;10.20;;;;;;;16.45;100.00;94664.00;4972357;28;20228;-84
2022/06/13 05:16:41;;;;;;;16.93;10.10;;;;;;;16.82;100.00;94706.78;4969808;28;20992;-82
2022/06/13 05:19:29;;;;;;;15.07;10.17;;;;;;;16.88;100.00;94710.97;4974648;28;20224;-79
2022/06/13 05:22:16;;;;;;;15.97;10.40;;;;;;;16.91;100.00;94713.09;4979076;28;20276;-80
2022/06/13 05:25:14;;;;;;;12.83;10.27;;;;;;;16.95;100.00;94708.91;4972740;28;20250;-81
2022/06/13 05:27:43;;;;;;;16.97;11.07;;;;;;;17.03;100.00;94710.25;4973166;28;20201;-81
2022/06/13 05:30:16;;;;;;;13.63;9.80;;;;;;;17.08;100.00;94712.13;4980286;28;20205;-84
2022/06/13 05:32:56;;;;;;;16.83;10.33;;;;;;;17.10;100.00;94713.44;4978378;28;20228;-84
2022/06/13 05:35:33;;;;;;;18.07;10.17;;;;;;;17.20;100.00;94713.47;4968999;28;20236;-84
2022/06/13 05:38:07;;;;;;;14.17;10.07;;;;;;;17.29;100.00;94706.69;4966862;28;20212;-84
2022/06/13 05:40:39;;;;;;;17.13;10.90;;;;;;;17.31;100.00;94706.44;4961581;28;20211;-84
2022/06/13 05:43:14;;;;;;;12.97;10.03;;;;;;;17.40;100.00;94713.53;4961025;28;20253;-85
2022/06/13 05:45:45;;;;;;;12.90;10.20;;;;;;;17.39;100.00;94703.31;4960667;28;20193;-81
2022/06/13 05:48:19;;;;;;;15.67;11.07;;;;;;;17.48;100.00;94710.44;4965606;28;20213;-83
2022/06/13 05:50:51;;;;;;;14.80;10.67;;;;;;;17.57;100.00;94716.78;4961937;28;20242;-84
2022/06/13 05:53:26;;;;;;;17.67;11.20;;;;;;;17.61;100.00;94711.78;4956406;28;20201;-83
2022/06/13 05:56:02;;;;;;;15.80;10.43;;;;;;;17.68;100.00;94720.22;4962879;28;20698;-83
2022/06/13 05:58:37;;;;;;;18.03;11.30;;;;;;;17.62;100.00;94708.13;4960240;28;20205;-84
2022/06/13 06:01:10;;;;;;;14.60;11.00;;;;;;;17.70;100.00;94717.34;4959182;28;20255;-77
2022/06/13 06:03:52;;;;;;;13.43;10.50;;;;;;;17.78;100.00;94709.72;4958210;28;20205;-84
2022/06/13 06:06:30;;;;;;;12.20;10.20;;;;;;;17.85;100.00;94709.47;4963178;28;20869;-83
2022/06/13 06:09:01;;;;;;;13.27;9.27;;;;;;;17.85;100.00;94710.28;4961608;28;20335;-83
2022/06/13 06:11:32;;;;;;;13.70;9.90;;;;;;;17.96;100.00;94719.75;4962562;28;20193;-83
2022/06/13 06:14:02;;;;;;;15.33;9.17;;;;;;;17.94;100.00;94721.84;4957150;28;20215;-82
2022/06/13 06:16:31;;;;;;;15.07;9.10;;;;;;;17.96;100.00;94722.38;4957255;28;20219;-83
2022/06/13 06:19:01;;;;;;;14.73;9.67;;;;;;;18.08;100.00;94720.28;4961581;28;20652;-81
2022/06/13 06:21:35;;;;;;;12.23;8.43;;;;;;;18.12;100.00;94721.31;4957219;28;20198;-82
2022/06/13 06:24:07;;;;;;;12.47;9.10;;;;;;;18.19;100.00;94717.63;4956441;28;20203;-82
2022/06/13 06:26:37;;;;;;;13.17;7.87;;;;;;;18.29;100.00;94723.72;4960797;28;20209;-83
2022/06/13 06:29:09;;;;;;;12.20;8.30;;;;;;;18.30;100.00;94721.84;4965382;28;20321;-84
2022/06/13 06:31:39;;;;;;;14.73;8.57;;;;;;;18.32;100.00;94727.66;4964276;28;20212;-81
2022/06/13 06:34:08;;;;;;;12.80;8.40;;;;;;;18.34;100.00;94721.06;4967915;28;20269;-80
2022/06/13 06:36:41;;;;;;;10.27;7.80;;;;;;;18.35;100.00;94727.13;4962998;28;20591;-78
2022/06/13 06:39:12;;;;;;;12.63;8.10;;;;;;;18.41;100.00;94726.09;4957770;28;20319;-79
2022/06/13 06:41:42;;;;;;;13.87;8.30;;;;;;;18.47;100.00;94732.91;4965832;28;20212;-79
2022/06/13 06:44:11;;;;;;;10.30;7.97;;;;;;;18.55;100.00;94732.41;4963612;28;20278;-81
2022/06/13 06:46:41;;;;;;;11.80;9.00;;;;;;;18.64;100.00;94733.47;4963830;28;20243;-82
2022/06/13 06:49:12;;;;;;;15.03;8.20;;;;;;;18.64;100.00;94728.19;4958729;28;20220;-83
2022/06/13 06:51:46;;;;;;;11.27;7.90;;;;;;;18.73;100.00;94737.09;4961496;28;20272;-77
2022/06/13 06:59:57;;;;;;;13.57;7.80;;;;;;;19.09;100.00;94725.44;4962244;28;20243;-75
2022/06/13 07:02:29;;;;;;;17.03;8.13;;;;;;;19.06;100.00;94718.06;4957847;28;20193;-75
2022/06/13 07:05:06;;;;;;;10.75;8.50;;;;;;;19.20;100.00;94723.53;4958489;28;20299;-78
2022/06/13 07:07:38;;;;;;;11.68;8.07;;;;;;;19.24;100.00;94733.31;4960308;28;20235;-77
2022/06/13 07:10:10;;;;;;;11.65;7.55;;;;;;;19.30;100.00;94720.09;4952164;28;20339;-73
2022/06/13 07:12:43;;;;;;;11.45;8.18;;;;;;;19.46;100.00;94729.53;4965730;28;20197;-81
2022/06/13 07:15:15;;;;;;;10.70;7.90;;;;;;;19.50;100.00;94733.22;4965262;28;20785;-74
2022/06/13 07:17:51;;;;;;;12.75;8.23;;;;;;;19.51;100.00;94730.28;4960109;28;20209;-75
2022/06/13 07:20:24;;;;;;;13.10;8.40;;;;;;;19.58;100.00;94724.72;4954283;28;20200;-83
2022/06/13 07:22:59;;;;;;;12.80;8.10;;;;;;;19.65;100.00;94725.22;4962527;28;20264;-80
2022/06/13 07:25:30;;;;;;;10.00;7.15;;;;;;;19.74;100.00;94728.84;4960208;28;20199;-83
2022/06/13 07:28:00;;;;;;;11.05;8.50;;;;;;;19.83;100.00;94727.22;4963834;28;20201;-82
2022/06/13 07:30:31;;;;;;;18.65;9.05;;;;;;;19.94;100.00;94728.72;4958399;28;20651;-79
2022/06/13 07:33:02;;;;;;;23.30;7.55;;;;;;;20.08;100.00;94716.50;4956774;28;20699;-86
2022/06/13 07:35:32;;;;;;;20.42;8.43;;;;;;;20.10;100.00;94732.84;4965752;28;20413;-88
2022/06/13 07:38:19;;;;;;;10.38;7.00;;;;;;;20.16;100.00;94725.69;4963098;28;20248;-84
2022/06/13 07:40:52;;;;;;;15.38;7.65;;;;;;;20.22;100.00;94740.44;4965862;28;20226;-84
2022/06/13 07:43:30;;;;;;;10.10;6.60;;;;;;;20.21;100.00;94733.56;4959638;28;20590;-83
2022/06/13 07:46:03;;;;;;;13.27;7.28;;;;;;;20.30;100.00;94737.22;4953410;28;20212;-83
2022/06/13 07:48:34;;;;;;;9.07;7.22;;;;;;;20.38;100.00;94741.91;4965940;28;20628;-82
2022/06/13 07:51:17;;;;;;;11.45;6.85;;;;;;;20.30;100.00;94727.47;4966613;28;20259;-83
2022/06/13 07:54:21;;;;;;;12.02;6.63;;;;;;;20.43;100.00;94735.81;4960411;28;20555;-84
2022/06/13 07:56:54;;;;;;;10.05;6.57;;;;;;;20.59;100.00;94745.16;4962901;28;20208;-82
2022/06/13 07:59:34;;;;;;;15.60;8.20;;;;;;;20.53;100.00;94728.59;4961562;28;20577;-83
2022/06/13 08:02:08;;;;;;;11.50;6.93;;;;;;;20.65;100.00;94721.06;4961636;28;20667;-91
2022/06/13 08:04:45;;;;;;;8.90;6.38;;;;;;;20.70;100.00;94728.16;4959886;28;20205;-84
2022/06/13 08:07:18;;;;;;;14.32;6.68;;;;;;;20.74;100.00;94722.06;4966019;28;20303;-85
2022/06/13 08:09:49;;;;;;;10.93;6.68;;;;;;;20.89;100.00;94727.16;4960068;28;20219;-84
2022/06/13 08:12:21;;;;;;;13.35;7.82;;;;;;;21.01;100.00;94732.06;4957250;28;20684;-78
2022/06/13 08:14:55;;;;;;;11.43;6.00;;;;;;;21.11;100.00;94734.66;4956307;28;20324;-85
2022/06/13 08:17:26;;;;;;;10.75;6.70;;;;;;;21.18;100.00;94729.78;4954176;28;20215;-82
2022/06/13 08:19:59;;;;;;;11.05;6.45;;;;;;;21.37;100.00;94733.28;4969666;28;20204;-82
2022/06/13 08:22:44;;;;;;;11.95;6.63;;;;;;;21.40;100.00;94731.94;4966808;28;20208;-78
2022/06/13 08:25:25;;;;;;;16.38;8.07;;;;;;;21.58;100.00;94739.13;4975072;28;20269;-79
2022/06/13 08:27:57;;;;;;;19.38;7.05;;;;;;;21.74;100.00;94739.69;4964848;28;20257;-82
2022/06/13 08:30:29;;;;;;;9.30;6.80;;;;;;;21.91;100.00;94745.31;4955805;28;20625;-83
2022/06/13 08:33:01;;;;;;;12.93;6.25;;;;;;;22.05;100.00;94748.81;4953768;28;20260;-82
2022/06/13 08:35:38;;;;;;;11.52;6.47;;;;;;;22.18;100.00;94748.09;4958201;28;20291;-82
2022/06/13 08:38:11;;;;;;;10.07;5.57;;;;;;;22.24;100.00;94748.81;4958492;28;20446;-83
2022/06/13 08:40:51;;;;;;;9.05;5.55;;;;;;;22.34;100.00;94754.72;4956366;28;20219;-78
2022/06/13 08:43:48;;;;;;;9.10;5.80;;;;;;;22.43;100.00;94747.69;4957264;28;20300;-82
2022/06/13 08:46:28;;;;;;;13.00;4.93;;;;;;;22.41;100.00;94749.06;4959789;28;20683;-79
2022/06/13 08:49:06;;;;;;;11.77;5.07;;;;;;;22.49;100.00;94745.75;4957629;28;20274;-80
2022/06/13 08:51:42;;;;;;;8.90;5.68;;;;;;;22.28;100.00;94699.50;4957830;28;20240;-76
2022/06/13 08:54:22;;;;;;;16.25;5.82;;;;;;;22.75;100.00;94754.91;4958682;28;20267;-78
2022/06/13 08:56:53;;;;;;;8.20;5.38;;;;;;;22.81;100.00;94742.34;4966794;28;20291;-81
2022/06/13 08:59:34;;;;;;;10.55;5.20;;;;;;;22.91;100.00;94747.47;4964313;28;20284;-81
2022/06/13 09:02:06;;;;;;;9.38;5.15;;;;;;;23.00;100.00;94737.78;4965570;28;20581;-82
2022/06/13 09:04:45;;;;;;;7.35;4.57;;;;;;;23.07;100.00;94741.59;4965099;28;20644;-85
2022/06/13 09:07:23;;;;;;;6.15;5.55;;;;;;;23.11;100.00;94742.59;4960721;28;20293;-83
2022/06/13 09:10:04;;;;;;;7.90;4.93;;;;;;;23.02;100.00;94746.22;4961027;28;20211;-83
2022/06/13 09:12:43;;;;;;;7.43;4.82;;;;;;;23.08;100.00;94747.69;4956483;28;20198;-76
2022/06/13 09:15:20;;;;;;;8.48;5.20;;;;;;;23.10;97.71;94740.22;4958716;28;20243;-86
2022/06/13 09:17:56;;;;;;;6.97;5.07;;;;;;;23.19;97.09;94743.75;4964569;28;20212;-74
2022/06/13 09:20:34;;;;;;;7.68;5.20;;;;;;;23.24;97.74;94740.22;4956856;28;20197;-74
2022/06/13 09:23:13;;;;;;;9.20;5.15;;;;;;;23.33;97.67;94747.22;4956617;28;20201;-86
2022/06/13 09:25:53;;;;;;;12.43;5.93;;;;;;;23.47;97.80;94740.06;4961226;28;20580;-82
2022/06/13 09:28:28;;;;;;;8.50;5.40;;;;;;;23.68;96.51;94738.56;4962118;28;20295;-76
2022/06/13 09:31:03;;;;;;;11.27;5.70;;;;;;;23.89;99.01;94748.75;4961840;28;20196;-79
2022/06/13 09:33:52;;;;;;;9.27;5.45;;;;;;;24.10;96.34;94745.38;4959120;28;20233;-82
2022/06/13 09:36:29;;;;;;;9.05;4.57;;;;;;;24.12;93.02;94737.91;4963787;28;20290;-76
2022/06/13 09:39:06;;;;;;;7.20;4.70;;;;;;;24.20;88.51;94737.19;4965743;28;20254;-80
2022/06/13 09:42:03;;;;;;;8.73;5.28;;;;;;;24.26;89.79;94735.19;4962278;28;20218;-82
2022/06/13 09:44:49;;;;;;;14.85;5.78;;;;;;;24.40;95.08;94735.91;4966620;28;20200;-83
2022/06/13 09:47:26;;;;;;;8.38;4.95;;;;;;;24.60;91.46;94735.44;4954938;29;20280;-82
2022/06/13 09:50:06;;;;;;;10.98;5.80;;;;;;;24.72;90.60;94738.31;4955879;28;20215;-82
2022/06/13 09:52:44;;;;;;;6.07;4.82;;;;;;;24.87;87.66;94733.75;4967495;28;20205;-83
2022/06/13 09:55:21;;;;;;;7.18;4.90;;;;;;;24.95;89.88;94727.66;4973384;28;20713;-83
2022/06/13 09:58:08;;;;;;;9.57;4.90;;;;;;;25.02;87.74;94742.09;4971741;28;20213;-85
2022/06/13 10:00:44;;;;;;;8.38;5.47;;;;;;;25.18;88.08;94734.50;4954575;29;20196;-80
2022/06/13 10:03:25;;;;;;;9.90;5.88;;;;;;;25.26;85.10;94736.41;4954313;29;20208;-81
2022/06/13 10:06:03;;;;;;;15.20;5.60;;;;;;;25.35;84.86;94738.03;4955145;28;20205;-84
2022/06/13 10:08:49;;;;;;;11.00;6.15;;;;;;;25.45;86.56;94736.97;4960474;28;20195;-84
2022/06/13 10:11:29;;;;;;;6.82;5.18;;;;;;;25.57;85.06;94733.75;4961813;28;20240;-84
2022/06/13 10:14:20;;;;;;;8.57;5.07;;;;;;;25.66;83.07;94734.50;4955387;29;20189;-85
2022/06/13 10:17:02;;;;;;;5.43;4.88;;;;;;;25.71;84.61;94729.06;4955425;28;20206;-84
2022/06/13 10:19:39;;;;;;;8.20;5.00;;;;;;;25.58;84.68;94714.78;4956720;29;20664;-84
2022/06/13 10:22:13;;;;;;;7.00;4.50;;;;;;;25.61;84.93;94719.47;4971211;28;20196;-84
2022/06/13 10:24:57;;;;;;;7.25;5.22;;;;;;;25.75;83.31;94727.34;4974774;28;20207;-84
2022/06/13 10:27:39;;;;;;;9.20;5.28;;;;;;;25.67;81.48;94723.56;4973451;28;20970;-76
2022/06/13 10:30:27;;;;;;;5.25;4.30;;;;;;;25.70;83.80;94722.94;4972927;28;20636;-81
2022/06/13 10:33:10;;;;;;;7.97;5.40;;;;;;;25.76;83.22;94729.69;4973310;28;20521;-81
2022/06/13 10:35:48;;;;;;;9.48;4.88;;;;;;;25.88;82.45;94718.44;4970387;28;20217;-81
2022/06/13 10:38:30;;;;;;;6.03;5.00;;;;;;;25.99;81.80;94713.56;4971552;28;20204;-80
2022/06/13 10:40:59;;;;;;;7.22;5.25;;;;;;;26.08;81.10;94707.16;4961560;28;20214;-80
2022/06/13 10:43:28;;;;;;;8.07;5.22;;;;;;;26.13;83.46;94711.53;4963118;28;20256;-80
2022/06/13 10:45:58;;;;;;;9.52;5.30;;;;;;;26.18;85.11;94704.19;4956756;28;20206;-81
2022/06/13 10:48:30;;;;;;;6.63;5.47;;;;;;;26.25;82.86;94704.53;4952145;28;20656;-81
2022/06/13 10:51:01;;;;;;;5.80;5.15;;;;;;;26.33;81.09;94706.38;4953722;29;20237;-80
2022/06/13 10:53:42;;;;;;;8.00;5.47;;;;;;;26.55;80.98;94699.31;4951752;28;20220;-82
2022/06/13 10:56:17;;;;;;;10.50;5.03;;;;;;;26.80;80.17;94693.94;4955406;28;20758;-79
2022/06/13 10:58:54;;;;;;;15.43;5.10;;;;;;;26.88;77.42;94679.78;4953956;28;20204;-82
2022/06/13 11:01:28;;;;;;;10.15;5.10;;;;;;;27.11;76.82;94695.56;4954576;28;20205;-83
2022/06/13 11:04:09;;;;;;;10.00;4.90;;;;;;;27.35;78.47;94679.75;4953909;28;20189;-82
2022/06/13 11:06:42;;;;;;;5.40;4.90;;;;;;;27.53;76.65;94681.25;4972061;28;20207;-81
2022/06/13 11:09:24;;;;;;;8.40;5.40;;;;;;;27.42;69.82;94674.69;4969256;28;20279;-80
2022/06/13 11:12:07;;;;;;;9.10;5.15;;;;;;;27.40;69.81;94663.53;4967382;28;20216;-83
2022/06/13 11:22:37;;;;;;;8.55;5.70;;;;;;;27.07;70.94;94652.69;4963403;28;20292;-79
2022/06/13 11:23:12;;;;;;;6.93;4.88;;;;;;;27.75;73.49;94651.56;4950275;28;20815;-78
2022/06/13 11:25:41;;;;;;;9.50;5.32;;;;;;;28.07;72.73;94650.84;4970702;28;20240;-78
2022/06/13 11:28:22;;;;;;;7.45;5.00;;;;;;;28.35;72.03;94650.28;4961978;28;20205;-77
2022/06/13 11:30:53;;;;;;;7.35;5.55;;;;;;;28.62;72.78;94642.44;4961749;28;20209;-79
2022/06/13 11:33:36;;;;;;;9.25;5.90;;;;;;;28.68;72.54;94643.84;4961709;28;20696;-79
2022/06/13 11:36:23;;;;;;;6.07;5.03;;;;;;;28.51;71.20;94637.84;4951990;28;20224;-82
2022/06/13 11:38:58;;;;;;;5.75;5.10;;;;;;;28.58;71.66;94643.44;4952568;28;20664;-76
2022/06/13 11:41:34;;;;;;;7.68;5.40;;;;;;;28.76;71.02;94628.78;4971279;28;20212;-81
2022/06/13 11:44:04;;;;;;;8.75;5.82;;;;;;;28.80;69.48;94632.38;4960123;28;20228;-79
2022/06/13 11:46:44;;;;;;;6.88;5.72;;;;;;;29.02;69.71;94628.47;4961827;28;20580;-79
2022/06/13 11:49:42;;;;;;;6.00;5.40;;;;;;;29.26;68.44;94620.47;4964863;28;20909;-80
2022/06/13 11:55:27;;;;;;;8.80;6.40;;;;;;;29.36;66.50;94614.63;4953424;28;20738;-79
2022/06/13 11:58:02;;;;;;;5.97;5.38;;;;;;;29.27;66.58;94630.84;4952473;28;20276;-79
2022/06/13 12:00:39;;;;;;;7.28;5.78;;;;;;;28.83;68.25;94628.25;4952245;28;20212;-80
2022/06/13 12:03:22;;;;;;;5.82;5.22;;;;;;;28.81;68.50;94612.50;4965704;28;20239;-79
2022/06/13 12:06:01;;;;;;;10.52;6.07;;;;;;;28.86;68.18;94612.28;4958986;28;20233;-85
2022/06/13 12:08:32;;;;;;;7.38;5.72;;;;;;;29.16;67.58;94610.94;4954911;28;20714;-85
2022/06/13 12:11:09;;;;;;;10.55;6.07;;;;;;;29.33;65.61;94596.56;4953666;28;20212;-84
2022/06/13 12:13:45;;;;;;;10.13;5.85;;;;;;;29.71;64.46;94598.81;4952580;28;20189;-83
2022/06/13 12:16:24;;;;;;;10.23;6.00;;;;;;;29.87;65.42;94594.31;4968963;28;20228;-84
2022/06/13 12:19:05;;;;;;;8.18;5.68;;;;;;;29.67;65.75;94581.84;4954326;28;20249;-84
2022/06/13 12:21:42;;;;;;;7.07;5.95;;;;;;;29.94;64.83;94593.75;4961855;28;20205;-85
2022/06/13 12:24:20;;;;;;;8.68;6.70;;;;;;;29.95;63.99;94584.59;4962944;28;20209;-79
2022/06/13 12:26:59;;;;;;;9.73;5.90;;;;;;;30.25;63.80;94589.25;4951676;28;20268;-81